Time;durP1;ratioP1;P1;durP2;ratioP2;P2;SDS_P1;SDS_P2;PMS_P1;PMS_P2;Temp;Humidity;BMP_temperature;BMP_pressure;BME280_temperature;BME280_humidity;BME280_pressure;Samples;Min_cycle;Max_cycle;Signal;HPM_P1;HPM_P2
2023/01/26 00:02:40;;;;;;;0.88;0.88;;;;;;;;;;6316986;28;20383;-77
2023/01/26 00:05:40;;;;;;;4.80;4.50;;;;;;;;;;6317598;28;20111;-77
2023/01/26 00:08:42;;;;;;;1.77;1.73;;;;;;;;;;6321304;28;20435;-77
2023/01/26 00:11:42;;;;;;;33.03;4.85;;;;;;;;;;6314118;28;20400;-78
2023/01/26 00:14:51;;;;;;;2.03;1.93;;;;;;;;;;6315963;28;20024;-77
2023/01/26 00:17:51;;;;;;;3.00;2.88;;;;;;;;;;6315470;28;20017;-78
2023/01/26 00:20:58;;;;;;;3.37;3.17;;;;;;;;;;6318910;28;20020;-78
2023/01/26 00:23:59;;;;;;;3.75;3.08;;;;;;;;;;6317739;28;20024;-78
2023/01/26 00:26:59;;;;;;;2.63;2.50;;;;;;;;;;6318188;28;20031;-78
2023/01/26 00:29:59;;;;;;;2.50;1.90;;;;;;;;;;6310705;28;20388;-78
2023/01/26 00:32:59;;;;;;;3.25;2.65;;;;;;;;;;6292260;28;20231;-79
2023/01/26 00:35:59;;;;;;;4.05;3.85;;;;;;;;;;6281186;28;20110;-78
2023/01/26 00:39:01;;;;;;;9.82;5.18;;;;;;;;;;6292158;28;20104;-78
2023/01/26 00:42:12;;;;;;;2.25;2.13;;;;;;;;;;6292957;28;20073;-78
2023/01/26 00:45:12;;;;;;;4.30;4.10;;;;;;;;;;6276900;28;20024;-78
2023/01/26 00:48:13;;;;;;;3.67;3.47;;;;;;;;;;6273723;28;20020;-78
2023/01/26 00:51:13;;;;;;;1.65;1.55;;;;;;;;;;6276330;28;20054;-78
2023/01/26 00:54:13;;;;;;;2.10;2.00;;;;;;;;;;6281184;28;20409;-78
2023/01/26 00:57:13;;;;;;;0.73;0.73;;;;;;;;;;6278209;28;20107;-78
2023/01/26 01:00:15;;;;;;;3.23;3.03;;;;;;;;;;6277759;28;20032;-78
2023/01/26 01:03:15;;;;;;;7.85;4.78;;;;;;;;;;6276413;28;20160;-78
2023/01/26 01:06:16;;;;;;;3.10;2.22;;;;;;;;;;6274069;28;20027;-78
2023/01/26 01:09:16;;;;;;;8.80;5.50;;;;;;;;;;6275283;28;20085;-78
2023/01/26 01:12:16;;;;;;;3.73;3.50;;;;;;;;;;6278870;28;20013;-78
2023/01/26 01:15:16;;;;;;;2.00;1.90;;;;;;;;;;6296009;28;20025;-78
2023/01/26 01:18:17;;;;;;;7.23;6.53;;;;;;;;;;6295248;28;20062;-78
2023/01/26 01:21:17;;;;;;;1.17;1.17;;;;;;;;;;6270514;28;20040;-78
2023/01/26 01:24:17;;;;;;;3.50;3.20;;;;;;;;;;6273491;28;20025;-78
2023/01/26 01:27:17;;;;;;;2.63;2.50;;;;;;;;;;6274954;28;20388;-78
2023/01/26 01:30:18;;;;;;;2.15;2.05;;;;;;;;;;6295277;28;20025;-78
2023/01/26 01:33:18;;;;;;;6.50;6.07;;;;;;;;;;6296150;28;20101;-78
2023/01/26 01:36:18;;;;;;;3.90;3.60;;;;;;;;;;6291530;28;20096;-78
2023/01/26 01:39:18;;;;;;;1.63;1.60;;;;;;;;;;6295186;28;20020;-78
2023/01/26 01:42:18;;;;;;;1.98;1.95;;;;;;;;;;6277191;28;20452;-78
2023/01/26 01:45:25;;;;;;;28.98;3.50;;;;;;;;;;6277568;28;20027;-78
2023/01/26 01:48:28;;;;;;;3.63;3.42;;;;;;;;;;6277517;28;20039;-78
2023/01/26 01:51:34;;;;;;;1.55;1.52;;;;;;;;;;6277049;28;20116;-78
2023/01/26 01:54:43;;;;;;;1.55;1.55;;;;;;;;;;6276852;28;20384;-78
2023/01/26 01:57:50;;;;;;;8.00;7.35;;;;;;;;;;6274494;28;20028;-77
2023/01/26 02:00:50;;;;;;;2.42;2.33;;;;;;;;;;6296088;28;20031;-77
2023/01/26 02:03:53;;;;;;;1.97;1.90;;;;;;;;;;6278016;28;20033;-77
2023/01/26 02:06:55;;;;;;;4.82;3.08;;;;;;;;;;6277190;28;20028;-77
2023/01/26 02:13:15;;;;;;;5.80;5.25;;;;;;;;;;6296323;28;20033;-77
2023/01/26 02:16:16;;;;;;;1.75;1.75;;;;;;;;;;6300809;28;20017;-77
2023/01/26 02:19:22;;;;;;;2.33;1.73;;;;;;;;;;6301480;28;20032;-77
2023/01/26 02:22:41;;;;;;;0.55;0.55;;;;;;;;;;6299404;28;20444;-77
2023/01/26 02:25:41;;;;;;;2.75;2.58;;;;;;;;;;6283236;28;20442;-78
2023/01/26 02:28:42;;;;;;;5.65;4.13;;;;;;;;;;6282628;28;20361;-77
2023/01/26 02:31:43;;;;;;;1.50;1.50;;;;;;;;;;6298739;28;20041;-77
2023/01/26 02:34:43;;;;;;;1.27;1.27;;;;;;;;;;6298370;28;20353;-77
2023/01/26 02:37:43;;;;;;;4.05;3.85;;;;;;;;;;6291964;28;20054;-77
2023/01/26 02:40:48;;;;;;;3.97;3.73;;;;;;;;;;6293811;28;20400;-77
2023/01/26 02:43:48;;;;;;;4.15;3.50;;;;;;;;;;6291210;28;20019;-78
2023/01/26 02:46:48;;;;;;;3.83;3.60;;;;;;;;;;6275673;28;20013;-78
2023/01/26 02:49:49;;;;;;;7.77;1.77;;;;;;;;;;6299432;28;20154;-78
2023/01/26 02:52:50;;;;;;;3.45;3.25;;;;;;;;;;6298860;28;20036;-78
2023/01/26 02:55:51;;;;;;;24.30;5.40;;;;;;;;;;6281612;28;20016;-77
2023/01/26 02:58:51;;;;;;;6.87;6.40;;;;;;;;;;6277998;28;20034;-78
2023/01/26 03:01:52;;;;;;;1.90;1.88;;;;;;;;;;6297705;28;20049;-78
2023/01/26 03:04:52;;;;;;;0.50;0.50;;;;;;;;;;6281760;28;20031;-78
2023/01/26 03:07:52;;;;;;;0.55;0.55;;;;;;;;;;6292806;28;20013;-78
2023/01/26 03:10:52;;;;;;;1.23;1.23;;;;;;;;;;6299140;28;20100;-78
2023/01/26 03:13:52;;;;;;;4.63;4.33;;;;;;;;;;6297602;28;20476;-77
2023/01/26 03:16:54;;;;;;;4.20;1.75;;;;;;;;;;6279976;28;20048;-77
2023/01/26 03:29:51;;;;;;;17.10;5.35;;;;;;;;;;6295089;28;20057;-78
2023/01/26 03:32:51;;;;;;;0.90;0.90;;;;;;;;;;6307595;28;20070;-77
2023/01/26 03:35:53;;;;;;;2.70;1.77;;;;;;;;;;6322900;28;20059;-77
2023/01/26 03:38:53;;;;;;;2.53;1.48;;;;;;;;;;6320973;28;20004;-77
2023/01/26 03:58:29;;;;;;;2.05;1.95;;;;;;;;;;6318997;28;20028;-77
2023/01/26 04:01:31;;;;;;;1.25;1.20;;;;;;;;;;6319662;28;20027;-77
2023/01/26 04:11:10;;;;;;;0.98;0.98;;;;;;;;;;6323642;28;20438;-78
2023/01/26 04:24:13;;;;;;;11.40;7.32;;;;;;;;;;6318919;28;20040;-77
2023/01/26 04:27:13;;;;;;;6.03;4.22;;;;;;;;;;6315951;28;20028;-77
2023/01/26 04:30:14;;;;;;;1.85;1.75;;;;;;;;;;6320717;28;20035;-77
2023/01/26 04:33:15;;;;;;;4.90;4.60;;;;;;;;;;6314261;28;20389;-78
2023/01/26 04:36:15;;;;;;;1.97;1.87;;;;;;;;;;6317370;28;20023;-78
2023/01/26 04:39:15;;;;;;;0.40;0.40;;;;;;;;;;6320973;28;20020;-78
2023/01/26 04:42:15;;;;;;;1.67;1.63;;;;;;;;;;6317805;28;20023;-78
2023/01/26 04:45:16;;;;;;;1.27;1.27;;;;;;;;;;6321497;28;20050;-77
2023/01/26 04:48:16;;;;;;;1.90;1.80;;;;;;;;;;6315477;28;20016;-77
2023/01/26 04:51:18;;;;;;;1.83;1.77;;;;;;;;;;6322633;28;20407;-77
2023/01/26 04:54:19;;;;;;;0.93;0.93;;;;;;;;;;6315241;28;20054;-78
2023/01/26 04:57:20;;;;;;;8.63;4.47;;;;;;;;;;6319920;28;20016;-78
2023/01/26 05:00:20;;;;;;;3.77;3.47;;;;;;;;;;6322133;28;20066;-78
2023/01/26 05:03:20;;;;;;;1.93;1.83;;;;;;;;;;6314681;28;20019;-78
2023/01/26 05:06:21;;;;;;;1.70;1.70;;;;;;;;;;6316996;28;20051;-77
2023/01/26 05:09:21;;;;;;;1.27;1.27;;;;;;;;;;6320197;28;20479;-77
2023/01/26 05:12:33;;;;;;;4.10;2.55;;;;;;;;;;6317952;28;20043;-78
2023/01/26 05:15:33;;;;;;;5.20;4.78;;;;;;;;;;6317733;28;20493;-78
2023/01/26 05:18:33;;;;;;;1.67;1.60;;;;;;;;;;6319096;28;20013;-78
2023/01/26 05:21:34;;;;;;;1.55;1.50;;;;;;;;;;6321451;28;20111;-78
2023/01/26 05:24:34;;;;;;;6.23;4.43;;;;;;;;;;6320501;28;20039;-78
2023/01/26 05:27:34;;;;;;;1.88;1.83;;;;;;;;;;6319764;28;20020;-78
2023/01/26 05:30:34;;;;;;;1.13;1.13;;;;;;;;;;6319886;28;20463;-78
2023/01/26 05:33:34;;;;;;;0.87;0.87;;;;;;;;;;6316342;28;20064;-78
2023/01/26 05:36:35;;;;;;;8.03;3.03;;;;;;;;;;6317059;28;20102;-78
2023/01/26 05:39:35;;;;;;;0.88;0.88;;;;;;;;;;6319803;28;20008;-78
2023/01/26 05:42:35;;;;;;;4.13;3.73;;;;;;;;;;6319405;28;20077;-78
2023/01/26 05:45:35;;;;;;;1.13;1.07;;;;;;;;;;6313224;28;20082;-78
2023/01/26 05:48:35;;;;;;;1.47;1.37;;;;;;;;;;6313876;28;20491;-77
2023/01/26 05:51:36;;;;;;;2.00;1.90;;;;;;;;;;6317979;28;20031;-77
2023/01/26 05:54:36;;;;;;;7.67;6.70;;;;;;;;;;6320938;28;20024;-77
2023/01/26 05:57:36;;;;;;;2.43;2.33;;;;;;;;;;6319496;28;20034;-77
2023/01/26 06:00:36;;;;;;;0.37;0.37;;;;;;;;;;6318102;28;20012;-77
2023/01/26 06:03:36;;;;;;;1.10;1.10;;;;;;;;;;6321288;28;20556;-77
2023/01/26 06:06:37;;;;;;;1.20;1.20;;;;;;;;;;6314845;28;20467;-77
2023/01/26 06:09:37;;;;;;;2.78;2.58;;;;;;;;;;6321195;28;20132;-77
2023/01/26 06:12:38;;;;;;;2.50;2.40;;;;;;;;;;6322077;28;20027;-77
2023/01/26 06:15:38;;;;;;;1.03;1.03;;;;;;;;;;6320754;28;20391;-77
2023/01/26 06:18:38;;;;;;;0.87;0.87;;;;;;;;;;6318649;28;20365;-77
2023/01/26 06:21:38;;;;;;;1.40;1.40;;;;;;;;;;6314342;28;20016;-77
2023/01/26 06:24:38;;;;;;;2.63;2.43;;;;;;;;;;6307040;28;20097;-78
2023/01/26 06:27:40;;;;;;;1.02;1.00;;;;;;;;;;6302836;28;20048;-78
2023/01/26 06:30:41;;;;;;;3.35;3.15;;;;;;;;;;6313725;28;20031;-78
2023/01/26 06:33:41;;;;;;;2.50;2.40;;;;;;;;;;6293238;28;20456;-78
2023/01/26 06:36:41;;;;;;;1.60;1.57;;;;;;;;;;6275489;28;20456;-78
2023/01/26 06:39:41;;;;;;;4.03;3.73;;;;;;;;;;6293852;28;20043;-78
2023/01/26 06:42:48;;;;;;;1.38;1.38;;;;;;;;;;6293005;28;20020;-78
2023/01/26 06:45:49;;;;;;;3.20;3.00;;;;;;;;;;6287998;28;20020;-78
2023/01/26 06:48:49;;;;;;;3.20;3.00;;;;;;;;;;6276413;28;20384;-78
2023/01/26 06:51:55;;;;;;;0.50;0.50;;;;;;;;;;6293633;28;20463;-78
2023/01/26 06:54:57;;;;;;;3.28;2.97;;;;;;;;;;6276219;28;20025;-78
2023/01/26 06:57:57;;;;;;;1.08;1.08;;;;;;;;;;6293734;28;20021;-78
2023/01/26 07:00:58;;;;;;;1.03;1.03;;;;;;;;;;6274315;28;20025;-78
2023/01/26 07:03:58;;;;;;;1.43;1.43;;;;;;;;;;6295427;28;20056;-77
2023/01/26 07:06:58;;;;;;;6.00;2.10;;;;;;;;;;6297949;28;20072;-77
2023/01/26 07:09:59;;;;;;;6.38;2.83;;;;;;;;;;6297824;28;20078;-78
2023/01/26 07:12:59;;;;;;;1.52;1.50;;;;;;;;;;6290907;28;20506;-78
2023/01/26 07:16:04;;;;;;;2.77;2.57;;;;;;;;;;6298715;28;20028;-76
2023/01/26 07:19:04;;;;;;;1.10;1.10;;;;;;;;;;6293038;28;20032;-78
2023/01/26 07:22:04;;;;;;;1.50;1.30;;;;;;;;;;6291052;28;20024;-78
2023/01/26 07:25:05;;;;;;;2.72;2.60;;;;;;;;;;6275176;28;20021;-78
2023/01/26 07:28:08;;;;;;;0.70;0.70;;;;;;;;;;6293613;28;20058;-77
2023/01/26 07:31:09;;;;;;;1.42;1.33;;;;;;;;;;6294794;28;20055;-77
2023/01/26 07:34:10;;;;;;;1.05;1.05;;;;;;;;;;6296727;28;20373;-77
2023/01/26 07:37:10;;;;;;;5.90;4.20;;;;;;;;;;6280617;28;20027;-78
2023/01/26 07:40:11;;;;;;;4.27;2.77;;;;;;;;;;6280366;28;20029;-77
2023/01/26 07:43:12;;;;;;;6.17;4.40;;;;;;;;;;6290767;28;20047;-77
2023/01/26 07:46:12;;;;;;;3.03;2.88;;;;;;;;;;6294995;28;20087;-78
2023/01/26 07:49:12;;;;;;;0.30;0.30;;;;;;;;;;6291937;28;20472;-77
2023/01/26 07:52:13;;;;;;;1.17;0.77;;;;;;;;;;6294376;28;20415;-78
2023/01/26 07:55:13;;;;;;;4.90;3.57;;;;;;;;;;6298828;28;20150;-77
2023/01/26 07:58:13;;;;;;;9.63;2.73;;;;;;;;;;6280130;28;20107;-77
2023/01/26 08:01:14;;;;;;;3.40;3.10;;;;;;;;;;6298286;28;20589;-77
2023/01/26 08:04:14;;;;;;;2.97;2.77;;;;;;;;;;6298776;28;20025;-77
2023/01/26 08:07:14;;;;;;;2.23;2.03;;;;;;;;;;6276543;28;20021;-77
2023/01/26 08:10:15;;;;;;;2.20;2.10;;;;;;;;;;6277386;28;20101;-77
2023/01/26 08:13:15;;;;;;;4.90;3.90;;;;;;;;;;6277081;28;20025;-77
2023/01/26 08:16:15;;;;;;;1.58;1.48;;;;;;;;;;6297656;28;20065;-77
2023/01/26 08:19:15;;;;;;;1.73;1.70;;;;;;;;;;6296491;28;20075;-77
2023/01/26 08:22:16;;;;;;;2.53;2.40;;;;;;;;;;6284079;28;20078;-77
2023/01/26 08:25:16;;;;;;;4.73;4.27;;;;;;;;;;6268344;28;20027;-78
2023/01/26 08:28:16;;;;;;;3.37;3.17;;;;;;;;;;6277434;28;20052;-77
2023/01/26 08:31:19;;;;;;;5.93;5.17;;;;;;;;;;6288768;28;20041;-77
2023/01/26 08:34:25;;;;;;;1.30;1.25;;;;;;;;;;6267827;28;20028;-76
2023/01/26 08:37:25;;;;;;;2.38;2.22;;;;;;;;;;6290593;28;20012;-77
2023/01/26 08:40:25;;;;;;;5.00;3.60;;;;;;;;;;6291042;28;20448;-77
2023/01/26 08:43:26;;;;;;;1.10;1.10;;;;;;;;;;6293590;28;20073;-77
2023/01/26 08:46:26;;;;;;;1.80;1.70;;;;;;;;;;6274437;28;20013;-77
2023/01/26 08:49:26;;;;;;;1.37;1.37;;;;;;;;;;6297811;28;20113;-77
2023/01/26 08:52:26;;;;;;;2.97;2.70;;;;;;;;;;6277742;28;20586;-77
2023/01/26 08:55:27;;;;;;;2.13;2.03;;;;;;;;;;6295710;28;20020;-77
2023/01/26 08:58:28;;;;;;;1.07;1.07;;;;;;;;;;6288702;28;20017;-77
2023/01/26 09:01:28;;;;;;;3.92;3.72;;;;;;;;;;6275561;28;20016;-77
2023/01/26 09:04:29;;;;;;;4.73;2.17;;;;;;;;;;6294325;28;20027;-77
2023/01/26 09:07:29;;;;;;;3.90;3.60;;;;;;;;;;6268318;28;20032;-77
2023/01/26 09:10:29;;;;;;;5.00;3.73;;;;;;;;;;6259828;28;20116;-77
2023/01/26 09:13:29;;;;;;;2.03;1.83;;;;;;;;;;6267469;28;20036;-77
2023/01/26 09:16:30;;;;;;;2.63;2.43;;;;;;;;;;6285111;28;20019;-77
2023/01/26 09:19:30;;;;;;;3.57;3.10;;;;;;;;;;6270703;28;20470;-77
2023/01/26 09:22:30;;;;;;;2.53;2.33;;;;;;;;;;6283795;28;20095;-77
2023/01/26 09:25:30;;;;;;;1.97;1.87;;;;;;;;;;6258213;28;20040;-77
2023/01/26 09:28:30;;;;;;;1.13;1.13;;;;;;;;;;6287460;28;20012;-78
2023/01/26 09:31:31;;;;;;;2.80;2.07;;;;;;;;;;6275638;28;20071;-76
2023/01/26 09:34:31;;;;;;;3.17;2.97;;;;;;;;;;6273103;28;21407;-76
2023/01/26 09:37:31;;;;;;;2.47;2.27;;;;;;;;;;6273016;28;20384;-77
2023/01/26 09:40:49;;;;;;;0.40;0.40;;;;;;;;;;6265163;28;20021;-77
2023/01/26 09:51:31;;;;;;;2.28;2.15;;;;;;;;;;6277651;28;20025;-77
2023/01/26 09:54:44;;;;;;;2.08;1.98;;;;;;;;;;6270411;28;20047;-77
2023/01/26 09:58:02;;;;;;;7.68;6.90;;;;;;;;;;6283943;28;20009;-77
2023/01/26 10:01:03;;;;;;;2.55;2.38;;;;;;;;;;6287951;28;20005;-78
2023/01/26 10:04:31;;;;;;;2.70;2.13;;;;;;;;;;6272241;28;20478;-78
2023/01/26 10:07:32;;;;;;;2.50;2.40;;;;;;;;;;6264876;28;20024;-78
2023/01/26 10:10:37;;;;;;;4.37;3.97;;;;;;;;;;6285163;28;20013;-77
2023/01/26 10:13:37;;;;;;;0.52;0.52;;;;;;;;;;6282825;28;20031;-77
2023/01/26 10:16:37;;;;;;;2.10;2.00;;;;;;;;;;6287258;28;20016;-77
2023/01/26 10:19:42;;;;;;;1.37;1.37;;;;;;;;;;6271365;28;20025;-77
2023/01/26 10:22:43;;;;;;;2.45;2.25;;;;;;;;;;6272637;28;20038;-77
2023/01/26 10:25:45;;;;;;;3.58;3.28;;;;;;;;;;6269497;28;20191;-78
2023/01/26 10:28:45;;;;;;;;;;;;;;;;;;6273785;28;20026;-77
2023/01/26 10:31:46;;;;;;;2.97;2.25;;;;;;;;;;6277568;28;20728;-78
2023/01/26 10:34:47;;;;;;;1.30;1.30;;;;;;;;;;6280761;28;20016;-78
2023/01/26 10:37:48;;;;;;;;;;;;;;;;;;6292762;28;20013;-77
2023/01/26 10:40:48;;;;;;;4.25;3.92;;;;;;;;;;6288324;28;19912;-77
2023/01/26 10:44:08;;;;;;;2.53;2.43;;;;;;;;;;6281887;28;20016;-77
2023/01/26 10:47:16;;;;;;;3.63;3.10;;;;;;;;;;6275707;28;20095;-77
2023/01/26 10:50:24;;;;;;;5.25;4.82;;;;;;;;;;6285523;28;20048;-76
2023/01/26 10:53:27;;;;;;;3.30;3.10;;;;;;;;;;6287812;28;20017;-77
2023/01/26 10:56:27;;;;;;;3.63;3.38;;;;;;;;;;6293327;28;20711;-77
2023/01/26 10:59:29;;;;;;;0.67;0.67;;;;;;;;;;6287238;28;20031;-77
2023/01/26 11:02:30;;;;;;;1.70;1.65;;;;;;;;;;6276970;28;20005;-77
2023/01/26 11:05:30;;;;;;;4.33;3.97;;;;;;;;;;6296781;28;20094;-77
2023/01/26 11:08:33;;;;;;;4.40;4.00;;;;;;;;;;6290850;28;20605;-77
2023/01/26 11:11:33;;;;;;;1.17;1.17;;;;;;;;;;6286609;28;20103;-77
2023/01/26 11:14:34;;;;;;;10.57;8.00;;;;;;;;;;6274632;28;20013;-77
2023/01/26 11:17:39;;;;;;;1.03;1.03;;;;;;;;;;6279356;28;20035;-78
2023/01/26 11:20:48;;;;;;;1.58;1.55;;;;;;;;;;6281619;28;20009;-78
2023/01/26 11:24:08;;;;;;;0.45;0.45;;;;;;;;;;6289926;28;20009;-77
2023/01/26 11:27:20;;;;;;;1.50;1.40;;;;;;;;;;6283853;28;20017;-77
2023/01/26 11:30:36;;;;;;;5.68;1.98;;;;;;;;;;6273439;28;20044;-76
2023/01/26 11:34:03;;;;;;;6.50;4.65;;;;;;;;;;6271105;28;20068;-78
2023/01/26 11:37:29;;;;;;;5.07;4.68;;;;;;;;;;6246993;28;20036;-77
2023/01/26 11:40:40;;;;;;;4.88;3.67;;;;;;;;;;6292963;28;20017;-77
2023/01/26 11:43:40;;;;;;;4.10;3.70;;;;;;;;;;6269828;28;20025;-77
2023/01/26 11:46:59;;;;;;;13.70;6.57;;;;;;;;;;6271137;28;20021;-78
2023/01/26 11:49:59;;;;;;;7.55;4.78;;;;;;;;;;6280273;28;20050;-77
2023/01/26 11:53:00;;;;;;;1.77;1.73;;;;;;;;;;6259041;28;20017;-77
2023/01/26 11:56:06;;;;;;;3.08;2.85;;;;;;;;;;6273418;28;20033;-77
2023/01/26 11:59:11;;;;;;;10.82;6.18;;;;;;;;;;6274920;28;20020;-77
2023/01/26 12:02:11;;;;;;;8.93;5.95;;;;;;;;;;6265189;28;20029;-77
2023/01/26 12:05:11;;;;;;;3.07;2.77;;;;;;;;;;6264381;28;20036;-77
2023/01/26 12:08:21;;;;;;;3.30;3.17;;;;;;;;;;6282619;28;20028;-77
2023/01/26 12:11:24;;;;;;;4.57;4.22;;;;;;;;;;6275415;28;20028;-77
2023/01/26 12:14:45;;;;;;;1.83;1.73;;;;;;;;;;6285707;28;20025;-77
2023/01/26 12:17:49;;;;;;;1.08;1.08;;;;;;;;;;6273185;28;20036;-77
2023/01/26 12:21:07;;;;;;;1.33;1.27;;;;;;;;;;6267280;28;20062;-77
2023/01/26 12:24:10;;;;;;;2.65;2.50;;;;;;;;;;6279622;28;20499;-78
2023/01/26 12:27:15;;;;;;;2.78;2.58;;;;;;;;;;6259510;28;20021;-77
2023/01/26 12:30:15;;;;;;;4.30;4.00;;;;;;;;;;6266486;28;20017;-77
2023/01/26 12:33:15;;;;;;;1.23;1.23;;;;;;;;;;6296747;28;20104;-78
2023/01/26 12:36:16;;;;;;;4.87;4.50;;;;;;;;;;6284411;28;20016;-77
2023/01/26 12:39:35;;;;;;;2.20;2.03;;;;;;;;;;6319266;28;20081;-78
2023/01/26 12:42:53;;;;;;;5.35;2.92;;;;;;;;;;6316088;28;20012;-77
2023/01/26 12:45:54;;;;;;;2.72;2.53;;;;;;;;;;6315492;28;20027;-78
2023/01/26 12:49:00;;;;;;;4.33;3.80;;;;;;;;;;6318813;28;20361;-77
2023/01/26 12:52:05;;;;;;;4.70;4.38;;;;;;;;;;6309167;28;20065;-78
2023/01/26 12:55:17;;;;;;;4.43;3.55;;;;;;;;;;6300954;28;20103;-78
2023/01/26 12:58:23;;;;;;;2.83;2.67;;;;;;;;;;6317217;28;20102;-77
2023/01/26 13:01:26;;;;;;;3.47;3.20;;;;;;;;;;6318453;28;20020;-77
2023/01/26 13:04:26;;;;;;;2.60;2.50;;;;;;;;;;6319209;28;20066;-78
2023/01/26 13:07:37;;;;;;;6.10;5.67;;;;;;;;;;6314221;28;20430;-78
2023/01/26 13:10:47;;;;;;;4.68;4.13;;;;;;;;;;6309505;28;20032;-77
2023/01/26 13:13:54;;;;;;;6.50;4.43;;;;;;;;;;6311706;28;20456;-78
2023/01/26 13:16:55;;;;;;;3.72;3.42;;;;;;;;;;6305576;28;20027;-78
2023/01/26 13:19:58;;;;;;;8.00;7.17;;;;;;;;;;6313777;28;20020;-77
2023/01/26 13:22:58;;;;;;;3.35;3.05;;;;;;;;;;6303417;28;20096;-77
2023/01/26 13:26:11;;;;;;;2.60;2.50;;;;;;;;;;6313938;28;20088;-77
2023/01/26 13:29:24;;;;;;;4.97;4.57;;;;;;;;;;6312091;28;20031;-78
2023/01/26 13:32:24;;;;;;;6.32;5.13;;;;;;;;;;6313606;28;20491;-78
2023/01/26 13:35:25;;;;;;;1.30;1.30;;;;;;;;;;6309768;28;20509;-78
2023/01/26 13:38:40;;;;;;;2.30;2.20;;;;;;;;;;6316872;28;20498;-77
2023/01/26 13:41:46;;;;;;;2.20;2.10;;;;;;;;;;6316168;28;20047;-78
2023/01/26 13:44:51;;;;;;;3.08;2.88;;;;;;;;;;6319654;28;20162;-77
2023/01/26 13:47:52;;;;;;;5.88;2.95;;;;;;;;;;6321809;28;20035;-77
2023/01/26 13:50:58;;;;;;;1.60;1.60;;;;;;;;;;6314394;28;20058;-77
2023/01/26 13:54:03;;;;;;;2.75;1.40;;;;;;;;;;6321114;28;20036;-77
2023/01/26 13:57:04;;;;;;;2.75;2.63;;;;;;;;;;6319180;28;20024;-77
2023/01/26 14:00:10;;;;;;;0.55;0.55;;;;;;;;;;6319810;28;20047;-77
2023/01/26 14:03:22;;;;;;;2.75;2.65;;;;;;;;;;6304131;28;20088;-77
2023/01/26 14:06:23;;;;;;;5.65;5.18;;;;;;;;;;6318361;28;20058;-77
2023/01/26 14:09:27;;;;;;;6.70;6.10;;;;;;;;;;6319212;28;20439;-77
2023/01/26 14:12:55;;;;;;;3.08;2.97;;;;;;;;;;6320790;28;20027;-77
2023/01/26 14:15:59;;;;;;;3.95;3.63;;;;;;;;;;6314098;28;20044;-77
2023/01/26 14:19:04;;;;;;;1.83;1.73;;;;;;;;;;6318633;28;20024;-78
2023/01/26 14:22:14;;;;;;;2.25;2.15;;;;;;;;;;6318647;28;20111;-78
2023/01/26 14:25:19;;;;;;;2.20;2.10;;;;;;;;;;6320919;28;20475;-77
2023/01/26 14:28:20;;;;;;;5.05;4.38;;;;;;;;;;6321228;28;20020;-77
2023/01/26 14:31:22;;;;;;;3.60;3.40;;;;;;;;;;6314966;28;20497;-77
2023/01/26 14:34:23;;;;;;;6.75;5.30;;;;;;;;;;6277482;28;20278;-77
2023/01/26 14:37:24;;;;;;;3.08;2.95;;;;;;;;;;6271711;28;20353;-77
2023/01/26 14:40:24;;;;;;;1.17;1.17;;;;;;;;;;6277759;28;20032;-77
2023/01/26 14:43:26;;;;;;;9.60;4.80;;;;;;;;;;6275340;28;20017;-77
2023/01/26 14:46:27;;;;;;;2.75;2.58;;;;;;;;;;6293469;28;20023;-77
2023/01/26 14:49:41;;;;;;;1.00;1.00;;;;;;;;;;6293781;28;20109;-77
2023/01/26 14:52:43;;;;;;;5.90;5.22;;;;;;;;;;6288443;28;20024;-77
2023/01/26 14:55:44;;;;;;;6.55;5.47;;;;;;;;;;6275583;28;20538;-77
2023/01/26 14:58:44;;;;;;;8.97;5.40;;;;;;;;;;6285206;28;20017;-78
2023/01/26 15:01:46;;;;;;;2.27;2.13;;;;;;;;;;6270027;28;20017;-78
2023/01/26 15:04:53;;;;;;;5.82;4.88;;;;;;;;;;6278654;28;20008;-78
2023/01/26 15:08:01;;;;;;;4.22;3.92;;;;;;;;;;6289268;28;20032;-78
2023/01/26 15:14:29;;;;;;;5.70;4.55;;;;;;;;;;6293098;28;20503;-78
2023/01/26 15:17:29;;;;;;;4.22;3.85;;;;;;;;;;6274079;28;20031;-78
2023/01/26 15:20:29;;;;;;;1.35;1.35;;;;;;;;;;6271898;28;20024;-77
2023/01/26 15:23:31;;;;;;;2.85;2.65;;;;;;;;;;6300350;28;20055;-77
2023/01/26 15:26:33;;;;;;;2.90;2.70;;;;;;;;;;6272945;28;20055;-77
2023/01/26 15:29:33;;;;;;;6.38;5.93;;;;;;;;;;6278081;28;20028;-77
2023/01/26 15:32:38;;;;;;;3.97;3.77;;;;;;;;;;6304709;28;20040;-77
2023/01/26 15:35:38;;;;;;;5.65;5.28;;;;;;;;;;6320004;28;20020;-77
2023/01/26 15:38:38;;;;;;;4.18;3.78;;;;;;;;;;6322183;28;20069;-77
2023/01/26 15:41:40;;;;;;;3.92;3.72;;;;;;;;;;6323030;28;20020;-77
2023/01/26 15:44:41;;;;;;;4.68;4.22;;;;;;;;;;6319324;28;20028;-78
2023/01/26 15:47:41;;;;;;;3.60;3.40;;;;;;;;;;6323139;28;20522;-77
2023/01/26 15:50:41;;;;;;;7.07;4.50;;;;;;;;;;6321672;28;20131;-77
2023/01/26 15:53:41;;;;;;;1.20;1.20;;;;;;;;;;6320436;28;20023;-77
2023/01/26 15:56:42;;;;;;;2.85;2.70;;;;;;;;;;6320234;28;20551;-77
2023/01/26 15:59:42;;;;;;;3.03;2.87;;;;;;;;;;6321385;28;20031;-77
2023/01/26 16:02:42;;;;;;;4.23;4.03;;;;;;;;;;6323297;28;20009;-76
2023/01/26 16:05:43;;;;;;;2.80;2.70;;;;;;;;;;6315317;28;20050;-77
2023/01/26 16:08:43;;;;;;;3.77;3.47;;;;;;;;;;6321817;28;20103;-76
2023/01/26 16:11:46;;;;;;;1.03;1.03;;;;;;;;;;6323072;28;20388;-76
2023/01/26 16:14:46;;;;;;;3.13;2.92;;;;;;;;;;6321461;28;20027;-76
2023/01/26 16:17:46;;;;;;;1.85;1.83;;;;;;;;;;6319219;28;20016;-77
2023/01/26 16:20:48;;;;;;;2.87;2.53;;;;;;;;;;6321911;28;20018;-77
2023/01/26 16:23:48;;;;;;;2.13;2.00;;;;;;;;;;6321199;28;20029;-77
2023/01/26 16:26:48;;;;;;;31.73;8.77;;;;;;;;;;6320708;28;20437;-77
2023/01/26 16:29:48;;;;;;;3.17;2.87;;;;;;;;;;6322894;28;20099;-76
2023/01/26 16:32:49;;;;;;;7.17;6.57;;;;;;;;;;6320172;28;20040;-77
2023/01/26 16:35:49;;;;;;;9.53;7.23;;;;;;;;;;6322284;28;20021;-77
2023/01/26 16:38:50;;;;;;;3.07;2.93;;;;;;;;;;6321881;28;20438;-76
2023/01/26 16:41:50;;;;;;;5.30;5.00;;;;;;;;;;6320339;28;20020;-77
2023/01/26 16:44:50;;;;;;;7.67;4.60;;;;;;;;;;6318009;28;20368;-77
2023/01/26 16:47:53;;;;;;;7.33;6.80;;;;;;;;;;6319957;28;20028;-78
2023/01/26 16:50:53;;;;;;;7.10;6.55;;;;;;;;;;6321265;28;20020;-77
2023/01/26 16:53:54;;;;;;;8.57;7.93;;;;;;;;;;6321625;28;20503;-77
2023/01/26 16:56:54;;;;;;;4.63;4.33;;;;;;;;;;6319658;28;20058;-77
2023/01/26 16:59:54;;;;;;;4.53;4.27;;;;;;;;;;6319266;28;20065;-77
2023/01/26 17:02:55;;;;;;;5.40;5.00;;;;;;;;;;6321837;28;20016;-77
2023/01/26 17:05:55;;;;;;;8.48;7.68;;;;;;;;;;6312831;28;20020;-77
2023/01/26 17:08:55;;;;;;;9.00;8.30;;;;;;;;;;6318022;28;20476;-77
2023/01/26 17:11:56;;;;;;;8.53;8.00;;;;;;;;;;6319777;28;20080;-77
2023/01/26 17:14:56;;;;;;;4.57;3.03;;;;;;;;;;6319392;28;20012;-77
2023/01/26 17:17:57;;;;;;;4.32;3.78;;;;;;;;;;6307152;28;20103;-77
2023/01/26 17:21:00;;;;;;;9.40;3.87;;;;;;;;;;6309326;28;20498;-77
2023/01/26 17:24:00;;;;;;;0.95;0.95;;;;;;;;;;6311071;28;20016;-77
2023/01/26 17:27:01;;;;;;;3.55;3.35;;;;;;;;;;6316589;28;20051;-77
2023/01/26 17:30:01;;;;;;;6.60;5.27;;;;;;;;;;6319585;28;20068;-77
2023/01/26 17:33:01;;;;;;;4.10;3.80;;;;;;;;;;6313280;28;20054;-77
2023/01/26 17:36:03;;;;;;;5.67;5.23;;;;;;;;;;6310118;28;20443;-76
2023/01/26 17:39:03;;;;;;;3.55;3.35;;;;;;;;;;6309284;28;20012;-77
2023/01/26 17:42:03;;;;;;;4.93;4.63;;;;;;;;;;6315335;28;20043;-76
2023/01/26 17:45:04;;;;;;;18.60;8.10;;;;;;;;;;6319476;28;20027;-76
2023/01/26 17:48:04;;;;;;;3.90;3.70;;;;;;;;;;6318879;28;20027;-77
2023/01/26 17:51:08;;;;;;;17.40;9.03;;;;;;;;;;6319185;28;20058;-77
2023/01/26 17:54:09;;;;;;;5.65;4.10;;;;;;;;;;6315241;28;20030;-76
2023/01/26 17:57:10;;;;;;;3.92;3.72;;;;;;;;;;6321185;28;20196;-76
2023/01/26 18:00:11;;;;;;;9.70;6.88;;;;;;;;;;6306628;28;20012;-77
2023/01/26 18:03:12;;;;;;;5.40;4.93;;;;;;;;;;6316868;28;20061;-77
2023/01/26 18:06:14;;;;;;;3.10;2.90;;;;;;;;;;6318083;28;20521;-76
2023/01/26 18:09:14;;;;;;;5.10;4.63;;;;;;;;;;6320389;28;20012;-76
2023/01/26 18:12:14;;;;;;;3.63;3.33;;;;;;;;;;6319652;28;20020;-77
2023/01/26 18:15:15;;;;;;;6.93;6.27;;;;;;;;;;6315319;28;20433;-77
2023/01/26 18:18:15;;;;;;;5.57;5.17;;;;;;;;;;6315779;28;20024;-77
2023/01/26 18:21:17;;;;;;;3.33;3.10;;;;;;;;;;6315452;28;20016;-77
2023/01/26 18:24:17;;;;;;;4.25;3.97;;;;;;;;;;6316525;28;20013;-78
2023/01/26 18:27:17;;;;;;;4.23;3.90;;;;;;;;;;6318994;28;20035;-77
2023/01/26 18:30:17;;;;;;;5.60;5.17;;;;;;;;;;6312791;28;20103;-77
2023/01/26 18:33:18;;;;;;;11.67;9.97;;;;;;;;;;6298534;28;20044;-77
2023/01/26 18:36:19;;;;;;;2.97;2.77;;;;;;;;;;6278539;28;20461;-77
2023/01/26 18:39:19;;;;;;;3.97;3.75;;;;;;;;;;6279540;28;20009;-77
2023/01/26 18:42:19;;;;;;;8.20;7.47;;;;;;;;;;6283319;28;20063;-77
2023/01/26 18:45:20;;;;;;;3.63;3.13;;;;;;;;;;6267446;28;20024;-78
2023/01/26 18:48:20;;;;;;;5.10;4.70;;;;;;;;;;6272450;28;20013;-77
2023/01/26 18:51:21;;;;;;;6.27;5.87;;;;;;;;;;6297273;28;20024;-77
2023/01/26 18:54:21;;;;;;;6.43;5.30;;;;;;;;;;6293699;28;20020;-77
2023/01/26 18:57:22;;;;;;;4.07;3.87;;;;;;;;;;6292750;28;20086;-77
2023/01/26 19:00:23;;;;;;;3.13;2.93;;;;;;;;;;6272246;28;20410;-77
2023/01/26 19:03:23;;;;;;;7.68;6.68;;;;;;;;;;6282684;28;20435;-78
2023/01/26 19:06:24;;;;;;;2.67;2.47;;;;;;;;;;6282088;28;20023;-77
2023/01/26 19:09:29;;;;;;;3.00;2.80;;;;;;;;;;6296419;28;20016;-77
2023/01/26 19:12:30;;;;;;;5.18;4.88;;;;;;;;;;6299881;28;20074;-77